Oak Hammock Air Park

CAV9 · Manitoba, Canadá

História da METAR CAV9 · Oak Hammock Air Park

Abaixo você vê METARs dos últimos dias. Selecione um ano para navegar pelos METARs mais antigos, a partir do ano 2007.

12 de junho de 2024

Hora Código Clima Temp. Visibilidade Tecto Vento METAR/SPECI
22:00
V
14 °C 15 mi - 290° 290° 3 kt METAR CYWG 130300Z 29003KT 260V340 15SM FEW110 14/14 A2965 RMK AC2 SLP047 DENSITY ALT 1200FT
21:00
V
16 °C 15 mi - Var Var 3 kt METAR CYWG 130200Z VRB03KT 15SM FEW110 SCT150 16/14 A2965 RMK AC2AC2 SLP044 DENSITY ALT 1400FT
20:42
V
16 °C 15 mi 15.000 ft Var Var 2 kt METAR CYWG 130142Z VRB02KT 15SM FEW022 SCT110 BKN150 16/14 A2963 RMK SC1AC3AC2 SC TR SLP040 DENSITY ALT 1500FT
20:00
V
15 °C 9 mi 8.000 ft 330° 330° 10 - 19 kt METAR CYWG 130100Z CCB 33010G19KT 290V350 9SM -SHRA SCT017TCU BKN080 BKN200 15/14 A2967 RMK TCU3AC4CI1 CI TR VIS LWR NW - N CB EMBD ALQDS PRESFR SLP053 DENSITY ALT 1300FT
19:00
V
19 °C 13 mi 7.800 ft 030° 030° 9 kt METAR CYWG 130000Z 03009KT 13SM -SHRA FEW035CB BKN078 BKN110 BKN200 19/12 A2965 RMK CB2AC3AC2CI1 CI TR CB SPRDG SE - N MOV SLW E PRESRR SLP044 DENSITY ALT 1800FT
18:46
V
20 °C 14 mi 15.000 ft 050° 050° 9 kt METAR CYWG 122346Z 05009KT 14SM -SHRA FEW035CB FEW066 SCT078 BKN150 BKN200 20/12 A2963 RMK CB2ACC1AC2AC2CI1 ACC TR CB SE - N HRZN MOV E SLP037 DENSITY ALT 1900FT
18:00
V
21 °C 15 mi 22.000 ft 020° 020° 5 kt METAR CYWG 122300Z 02005KT 15SM FEW030 FEW035CB SCT080 BKN220 21/12 A2963 RMK CF1CB1AC3CI3 CF TR CB S - NW HRZN MOV E ANVIL OHD SLP038 DENSITY ALT 2000FT
17:00
V
21 °C 15 mi - 070° 070° 7 kt METAR CYWG 122200Z 07007KT 010V090 15SM FEW040 FEW100 FEW260 FEW300 21/12 A2963 RMK CU1AC1CI1CI1 CU TR AC TR DIST CB TOP W SLP038 DENSITY ALT 2000FT
16:00
V
21 °C 15 mi - 060° 060° 9 kt METAR CYWG 122100Z 06009KT 340V070 15SM FEW042 FEW230 21/12 A2963 RMK CU1CI1 CU TR CI TR SLP038 DENSITY ALT 2100FT
15:00
V
21 °C 15 mi - Var Var 7 kt METAR CYWG 122000Z VRB07KT 15SM FEW040 FEW085 FEW240 21/12 A2963 RMK CU1AC1CI1 CU TR AC TR CI TR SLP039 DENSITY ALT 2000FT
14:00
V
20 °C 15 mi - 030° 030° 4 kt METAR CYWG 121900Z 03004KT 010V180 15SM FEW040 FEW085 FEW240 20/11 A2963 RMK CU1AC1CI1 CU TR AC TR CI TR SLP037 DENSITY ALT 1900FT
13:00
V
19 °C 15 mi - 040° 040° 8 kt METAR CYWG 121800Z 04008KT 020V090 15SM FEW040 FEW095 FEW240 19/11 A2963 RMK CU1AC1CI1 CU TR AC TR CI TR PSBL CB TOP NW - NE HRZN SLP037 DENSITY ALT 1800FT
12:00
V
18 °C 15 mi - 080° 080° 6 kt METAR CYWG 121700Z 08006KT 15SM FEW030 FEW035TCU SCT095 SCT140 18/10 A2962 RMK CF1TCU2AC2AC1 CF TR SLP035 DENSITY ALT 1700FT
11:00
V
17 °C 15 mi - 060° 060° 6 kt METAR CYWG 121600Z 06006KT 030V090 15SM FEW040 FEW110 FEW230 17/11 A2961 RMK SC1AC1CI1 AC TR CI TR CB TOP NE - E MOV E SLP031 DENSITY ALT 1700FT
10:26
V
16 °C 15 mi - 090° 090° 7 kt METAR CYWG 121526Z 09007KT 15SM FEW020CB FEW035 FEW090 FEW240 16/12 A2960 RMK CB1SC1AC1CI1 CB TR CI TR CB SPRD NE - E MOV SLW E SLP029 DENSITY ALT 1500FT
10:00
V
15 °C 14 mi 24.000 ft 050° 050° 7 kt METAR CYWG 121500Z 05007KT 14SM -SHRA FEW015 SCT020CB SCT090 SCT110 BKN240 15/12 A2962 RMK CF1CB2AC1AC1CI1 AC TR CB E MOV SLW E PCPN VRY LGT SLP035 DENSITY ALT 1400FT
09:34
V
15 °C 10 mi 9.500 ft 050° 050° 6 kt METAR CYWG 121434Z 05006KT 10SM -SHRA FEW020CB SCT075 BKN095 BKN210 15/12 A2963 RMK CB2AC2AC3CI1 CI TR CB CLD E MOV E PRESFR SLP037 DENSITY ALT 1300FT
09:26
V
14 °C 12 mi 6.200 ft 050° 050° 8 kt METAR CYWG 121426Z 05008KT 12SM SHRA FEW025 BKN062 BKN100 BKN230 14/12 A2962 RMK SC1SC5AC1CI1 CI TR VIS W - NE 6 CB EMBD PRESFR SLP034 DENSITY ALT 1300FT
09:00
V
15 °C 14 mi 10.000 ft 330° 330° 6 kt METAR CYWG 121400Z 33006KT 14SM -SHRA FEW035 FEW075 SCT095 BKN100 BKN260 15/11 A2968 RMK SC2ACC1AC2AC2CI1 ACC TR CB SPRDG SE - NW NOW EMBD MOV SLW E SLP056 DENSITY ALT 1300FT
08:29
V
16 °C 13 mi 26.000 ft 050° 050° 9 kt METAR CYWG 121329Z 05009KT 13SM VCSH FEW025CB SCT120 BKN260 16/10 A2962 RMK CB2AC2CI2 VIS HYR N - SE CB S - W MOV E ANVIL PRESFR SLP035 DENSITY ALT 1500FT
08:00
V
16 °C 15 mi - 070° 070° 6 kt METAR CYWG 121300Z 07006KT 15SM FEW130 FEW250 16/10 A2963 RMK AC1CI1 SLP036 DENSITY ALT 1400FT
07:00
V
13 °C 15 mi - 050° 050° 4 kt METAR CYWG 121200Z 05004KT 15SM FEW066CB FEW130 FEW250 13/11 A2962 RMK CB1AC1CI1 CB TR CB S SLP034 DENSITY ALT 1100FT
06:00
V
10 °C 15 mi - 050° 050° 4 kt METAR CYWG 121100Z 05004KT 15SM FEW120 FEW250 10/10 A2961 RMK AC1CI1 AC TR CI TR SLP032
05:00
V
9 °C 15 mi - 050° 050° 3 kt METAR CYWG 121000Z 05003KT 15SM MIFG FEW110 FEW250 09/09 A2962 RMK AC1CI1 AC TR CI TR SLP037
04:00
V
11 °C 15 mi - 330° 330° 2 kt METAR CYWG 120900Z 33002KT 15SM FEW110 11/11 A2964 RMK AC1 AC TR SLP043
03:00
V
11 °C 15 mi - 330° 330° 3 kt METAR CYWG 120800Z 33003KT 15SM FEW110 FEW250 11/11 A2965 RMK AC1CI1 CI TR SLP045
02:00
V
11 °C 15 mi - 340° 340° 3 kt METAR CYWG 120700Z 34003KT 15SM FEW110 11/11 A2964 RMK AC2 SLP043
01:00
V
12 °C 15 mi - 350° 350° 4 kt METAR CYWG 120600Z 35004KT 15SM FEW078 FEW110 12/12 A2964 RMK AC1AC1 SLP044 DENSITY ALT 1000FT
00:00
V
14 °C 15 mi - 360° 360° 0 kt METAR CYWG 120500Z 00000KT 15SM FEW073 SCT120 14/12 A2963 RMK AC2AC1 SLP039 DENSITY ALT 1200FT

11 de junho de 2024

Hora Código Clima Temp. Visibilidade Tecto Vento METAR/SPECI
23:00
V
14 °C 15 mi - 030° 030° 4 kt METAR CYWG 120400Z 03004KT 15SM FEW061 SCT099 14/12 A2962 RMK SC1AC3 SC TR SLP037 DENSITY ALT 1200FT
22:00
V
17 °C 15 mi - 250° 250° 5 kt METAR CYWG 120300Z 25005KT 190V260 15SM FEW057 SCT088 17/12 A2960 RMK SC1AC3 SLP030 DENSITY ALT 1600FT
21:18
V
19 °C 15 mi 8.800 ft 210° 210° 12 kt METAR CYWG 120218Z 21012KT 15SM -SHRA FEW069 BKN088 19/11 A2958 RMK AC2AC3 CVCTV CLD EMBD SLP020 DENSITY ALT 1900FT
21:00
V
19 °C 15 mi - 210° 210° 9 kt METAR CYWG 120200Z 21009KT 15SM SCT074 19/10 A2958 RMK AC4 SLP021 DENSITY ALT 1900FT
20:00
V
20 °C 15 mi - 240° 240° 7 kt METAR CYWG 120100Z 24007KT 15SM FEW040 FEW080 20/10 A2962 RMK CF1AC2 SLP033 DENSITY ALT 1900FT
19:00
V
20 °C 15 mi - 290° 290° 9 - 15 kt METAR CYWG 120000Z 29009G15KT 15SM FEW045 FEW080 20/11 A2963 RMK CF1AC1 SLP036 DENSITY ALT 2000FT
18:00
V
20 °C 15 mi 5.900 ft 300° 300° 19 - 24 kt METAR CYWG 112300Z 30019G24KT 15SM SCT042 BKN059 20/09 A2963 RMK SC3SC3 SLP039 DENSITY ALT 2000FT
17:00
V
19 °C 15 mi 6.200 ft 310° 310° 21 kt METAR CYWG 112200Z 31021KT 15SM SCT039 BKN062 19/11 A2964 RMK SC3SC3 SLP040 DENSITY ALT 1800FT
16:00
V
18 °C 15 mi 5.900 ft 300° 300° 16 - 24 kt METAR CYWG 112100Z 30016G24KT 15SM SCT035 BKN059 18/12 A2963 RMK SC4SC3 SLP037 DENSITY ALT 1700FT
15:00
V
17 °C 15 mi 3.300 ft 300° 300° 16 - 25 kt METAR CYWG 112000Z 30016G25KT 15SM BKN033 17/12 A2962 RMK SC7 SLP034 DENSITY ALT 1600FT
14:00
V
18 °C 15 mi 3.900 ft 290° 290° 20 - 29 kt METAR CYWG 111900Z 29020G29KT 15SM BKN039 18/12 A2959 RMK SC7 SLP025 DENSITY ALT 1700FT
13:00
M
16 °C 15 mi 2.000 ft 290° 290° 20 - 31 kt METAR CYWG 111800Z 29020G31KT 15SM BKN020 BKN044 16/12 A2957 RMK SC5SC2 SLP020 DENSITY ALT 1500FT
12:00
M
15 °C 15 mi 2.200 ft 270° 270° 21 - 32 kt METAR CYWG 111700Z 27021G32KT 15SM BKN022 OVC043 15/11 A2955 RMK SC6SC2 SLP012 DENSITY ALT 1500FT
11:00
M
14 °C 15 mi 1.700 ft 270° 270° 21 - 27 kt METAR CYWG 111600Z 27021G27KT 15SM OVC017 14/12 A2953 RMK SC8 SLP004 DENSITY ALT 1400FT
10:00
M
14 °C 15 mi 1.900 ft 260° 260° 16 - 27 kt METAR CYWG 111500Z 26016G27KT 15SM OVC019 14/11 A2950 RMK SC8 SLP995 DENSITY ALT 1400FT
09:00
M
15 °C 15 mi 2.500 ft 240° 240° 12 - 21 kt METAR CYWG 111400Z 24012G21KT 15SM OVC025 15/11 A2950 RMK SC8 SLP995 DENSITY ALT 1500FT
08:00
M
14 °C 15 mi 2.700 ft 220° 220° 13 - 24 kt METAR CYWG 111300Z 22013G24KT 15SM OVC027 14/11 A2951 RMK SC8 SLP998 DENSITY ALT 1400FT
07:00
M
14 °C 15 mi 2.900 ft 230° 230° 11 kt METAR CYWG 111200Z 23011KT 15SM BKN029 14/11 A2953 RMK SC7 SLP003 DENSITY ALT 1400FT
06:00
M
15 °C 15 mi 2.700 ft 200° 200° 12 - 17 kt METAR CYWG 111100Z 20012G17KT 15SM BKN027 15/13 A2954 RMK SC7 SLP007 DENSITY ALT 1400FT
05:00
V
14 °C 15 mi - 190° 190° 16 - 21 kt METAR CYWG 111000Z 19016G21KT 15SM SCT026 14/12 A2955 RMK SC3 SLP009 DENSITY ALT 1300FT
04:00
M
15 °C 15 mi 2.600 ft 180° 180° 19 - 26 kt METAR CYWG 110900Z 18019G26KT 15SM OVC026 15/12 A2956 RMK SC8 SLP015 DENSITY ALT 1400FT
03:00
V
14 °C 15 mi 3.700 ft 160° 160° 14 - 20 kt METAR CYWG 110800Z 16014G20KT 15SM OVC037 14/12 A2959 RMK SC8 SLP026 DENSITY ALT 1200FT
02:00
V
13 °C 15 mi 4.600 ft 140° 140° 15 - 22 kt METAR CYWG 110700Z 14015G22KT 15SM FEW024 OVC046 13/12 A2965 RMK SC1SC8 SC TR SLP044 DENSITY ALT 1100FT
01:27
V
13 °C 15 mi 5.700 ft 140° 140° 14 kt METAR CYWG 110627Z 14014KT 15SM OVC057 13/12 A2967 RMK SC8 PRESFR SLP051 DENSITY ALT 1100FT
01:00
V
13 °C 15 mi 5.200 ft 150° 150° 12 kt METAR CYWG 110600Z 15012KT 15SM RA OVC052 13/12 A2970 RMK SC8 SLP062 DENSITY ALT 1100FT
00:00
V
14 °C 12 mi 5.400 ft 170° 170° 10 kt METAR CYWG 110500Z 17010KT 12SM -RA OVC054 14/11 A2975 RMK SC8 SLP077 DENSITY ALT 1100FT

10 de junho de 2024

Hora Código Clima Temp. Visibilidade Tecto Vento METAR/SPECI
23:00
V
18 °C 15 mi 7.500 ft 170° 170° 13 kt METAR CYWG 110400Z 17013KT 15SM -RA OVC075 18/07 A2976 RMK AC8 SLP083 DENSITY ALT 1500FT
22:45
V
18 °C 15 mi 7.700 ft 170° 170° 10 - 16 kt METAR CYWG 110345Z 17010G16KT 15SM -RA OVC077 18/08 A2977 RMK AC8 SLP084 DENSITY ALT 1500FT
22:00
V
18 °C 15 mi 10.000 ft 150° 150° 9 kt METAR CYWG 110300Z 15009KT 15SM OVC100 18/08 A2976 RMK AC8 SLP082 DENSITY ALT 1500FT
21:12
V
18 °C 15 mi 10.000 ft 140° 140° 10 kt METAR CYWG 110212Z 14010KT 15SM OVC100 18/09 A2978 RMK AC8 SLP090 DENSITY ALT 1500FT
21:00
V
18 °C 15 mi 11.000 ft 150° 150° 9 kt METAR CYWG 110200Z 15009KT 15SM -RA OVC110 18/09 A2979 RMK AC8 SLP091 DENSITY ALT 1500FT
20:50
V
18 °C 15 mi 10.000 ft 150° 150° 9 kt METAR CYWG 110150Z 15009KT 15SM -RA OVC100 18/10 A2980 RMK AC8 SLP095 DENSITY ALT 1500FT
20:00
V
19 °C 15 mi 13.000 ft 150° 150° 8 kt METAR CYWG 110100Z 15008KT 15SM FEW100 OVC130 19/09 A2983 RMK AC2AS6 SLP108 DENSITY ALT 1500FT
19:00
V
19 °C 15 mi 10.000 ft 170° 170° 7 kt METAR CYWG 110000Z 17007KT 15SM OVC100 19/09 A2985 RMK AS8 SLP115 DENSITY ALT 1600FT
18:00
V
20 °C 15 mi 11.000 ft 170° 170° 10 kt METAR CYWG 102300Z 17010KT 15SM OVC110 20/07 A2988 RMK AS8 SLP123 DENSITY ALT 1600FT
17:00
V
21 °C 15 mi 15.000 ft 180° 180° 12 - 19 kt METAR CYWG 102200Z 18012G19KT 15SM OVC150 21/06 A2989 RMK AS8 SLP129 DENSITY ALT 1700FT
16:00
V
21 °C 15 mi 17.000 ft 180° 180° 11 - 16 kt METAR CYWG 102100Z 18011G16KT 15SM BKN170 BKN250 21/06 A2990 RMK AS5CS2 SLP132 DENSITY ALT 1700FT
15:00
V
21 °C 15 mi 22.000 ft 150° 150° 12 - 22 kt METAR CYWG 102000Z 15012G22KT 140V200 15SM OVC220 21/06 A2993 RMK CS8 SLP141 DENSITY ALT 1700FT
14:00
V
22 °C 15 mi 23.000 ft 170° 170° 12 - 20 kt METAR CYWG 101900Z 17012G20KT 15SM BKN230 22/06 A2995 RMK CS7 SLP148 DENSITY ALT 1800FT
13:00
V
21 °C 15 mi - 180° 180° 12 - 20 kt METAR CYWG 101800Z 18012G20KT 15SM FEW100 SCT250 21/05 A2998 RMK AC1CI4 AC TR SLP158 DENSITY ALT 1700FT
12:00
V
20 °C 15 mi 25.000 ft 180° 180° 9 - 19 kt METAR CYWG 101700Z 18009G19KT 130V210 15SM FEW100 BKN250 20/06 A3001 RMK AC1CS7 AC TR SLP167 DENSITY ALT 1500FT
11:00
V
19 °C 15 mi 25.000 ft 180° 180° 5 kt METAR CYWG 101600Z 18005KT 150V220 15SM FEW100 BKN250 19/06 A3004 RMK AC1CI6 AC TR SLP179 DENSITY ALT 1300FT
10:00
V
17 °C 15 mi 25.000 ft 180° 180° 4 kt METAR CYWG 101500Z 18004KT 110V200 15SM FEW100 BKN250 17/07 A3007 RMK AC1CI5 AC TR CC ASOCTD SLP189 DENSITY ALT 1100FT
09:00
V
15 °C 15 mi 25.000 ft 360° 360° 0 kt METAR CYWG 101400Z 00000KT 15SM FEW100 BKN250 15/09 A3009 RMK AC1CI5 AC TR CC ASOCTD SLP196
08:00
V
12 °C 15 mi - 360° 360° 0 kt METAR CYWG 101300Z 00000KT 15SM SCT250 12/09 A3010 RMK CI4 SLP199
07:00
V
9 °C 15 mi - 320° 320° 2 kt METAR CYWG 101200Z 32002KT 15SM FEW240 09/08 A3010 RMK CI2 SLP199
06:00
V
7 °C 15 mi - 360° 360° 0 kt METAR CYWG 101100Z 00000KT 15SM FEW140 07/06 A3011 RMK CI1 SLP202
05:00
V
6 °C 15 mi - 020° 020° 2 kt METAR CYWG 101000Z 02002KT 15SM FEW240 06/05 A3011 RMK CI1 CI TR SLP206
04:00
V
6 °C 15 mi - 320° 320° 3 kt METAR CYWG 100900Z 32003KT 15SM FEW240 06/06 A3012 RMK CI1 CI TR SLP209
03:00
V
7 °C 15 mi - 320° 320° 4 kt METAR CYWG 100800Z 32004KT 15SM SKC 07/06 A3013 RMK SLP212
02:00
V
8 °C 15 mi - 330° 330° 5 kt METAR CYWG 100700Z 33005KT 15SM SKC 08/08 A3014 RMK SLP214
01:00
V
8 °C 15 mi - 310° 310° 5 kt METAR CYWG 100600Z 31005KT 15SM SKC 08/08 A3013 RMK SLP212
Relatar uma mudança